Wan Hai 508 — 9VJJ6 — position and weather

sailwx.info

Track history (hours):
 
Tides and Currents Weather Stations Pressure Air Temp Water Temp Dewpoint Dewpoint Depression Visibility Wind Speed Wind Dir Waves Ship Positions

Wan Hai 508

Last reported at 2016-Aug-15 03:13 UTC. Time now 2016-Aug-26 23:28 UTC.
Position N 01°57' E 102°17'.
Warning: this ship's position is 11 days out of date.

Length 269 m; draft 8.7 m.

Type: Cargo ship. MMSI: 565567000.

Date/timePositionNaut miles runAvg speedWind from/ knotsBaromVisibWave heightAir tempDewpointWater temp
2016-Aug-15 03:13N 01°57' E 102°17'1319.1
2016-Aug-15 02:33N 01°52' E 102°28'1818.5
2016-Aug-15 01:34N 01°44' E 102°45'7116.4
2016-Aug-14 21:13N 01°11' E 103°48'5 7.5
2016-Aug-14 20:31N 01°14' E 103°52'3 3.3
2016-Aug-14 19:33N 01°16' E 103°50'0 0.0
2016-Aug-14 17:26N 01°16' E 103°50'0 0.0
2016-Aug-14 16:32N 01°16' E 103°50'0 0.0
2016-Aug-14 15:32N 01°16' E 103°50'0 0.0
2016-Aug-14 14:32N 01°16' E 103°50'0 0.0
2016-Aug-14 13:32N 01°16' E 103°50'0 0.0
2016-Aug-14 12:32N 01°16' E 103°50'0 0.0
2016-Aug-14 11:32N 01°16' E 103°50'0 0.0
2016-Aug-14 10:32N 01°16' E 103°50'0 0.0
2016-Aug-14 09:32N 01°16' E 103°50'0 0.0
2016-Aug-14 08:32N 01°16' E 103°50'0 0.0
2016-Aug-14 07:32N 01°16' E 103°50'0 0.0
2016-Aug-14 06:32N 01°16' E 103°50'0 0.0
2016-Aug-14 04:32N 01°16' E 103°50'0 0.2
2016-Aug-14 03:33N 01°16' E 103°50'4 4.2
2016-Aug-14 02:33N 01°17' E 103°54'0 0.1
2016-Aug-14 01:31N 01°16' E 103°54'0 0.0
2016-Aug-14 00:31N 01°16' E 103°54'0 0.1
2016-Aug-13 23:31N 01°16' E 103°54'0 0.2
2016-Aug-13 22:25N 01°16' E 103°54'0 0.1
2016-Aug-13 21:31N 01°16' E 103°54'0 0.2
2016-Aug-13 20:31N 01°16' E 103°54'0 0.1
2016-Aug-13 19:25N 01°16' E 103°54'0 0.1
2016-Aug-13 18:22N 01°17' E 103°54'0 0.1
2016-Aug-13 17:25N 01°17' E 103°54'0 0.0
2016-Aug-13 16:31N 01°17' E 103°54'0 0.1
2016-Aug-13 15:31N 01°16' E 103°54'0 0.1
2016-Aug-13 14:31N 01°17' E 103°54'0 0.1
2016-Aug-13 13:31N 01°16' E 103°54'0 0.0
2016-Aug-13 12:31N 01°16' E 103°54'0 0.0
2016-Aug-13 11:31N 01°16' E 103°54'0 0.0
2016-Aug-13 10:31N 01°16' E 103°54'0 0.1
2016-Aug-13 09:31N 01°17' E 103°54'0 0.1
2016-Aug-13 08:31N 01°17' E 103°54'0 0.0
2016-Aug-13 07:31N 01°17' E 103°54'0 0.1
2016-Aug-13 06:25N 01°16' E 103°54'2 2.0
2016-Aug-13 05:33N 01°15' E 103°54'5 4.5
2016-Aug-13 04:32N 01°11' E 103°51'1010.1
2016-Aug-13 03:31N 01°05' E 103°43'8917.9
2016-Aug-12 22:33N 01°48' E 102°25'  
Track history (hours):
 
Tides and Currents Weather Stations Pressure Air Temp Water Temp Dewpoint Dewpoint Depression Visibility Wind Speed Wind Dir Waves Ship Positions

Wan Hai 508

Last reported at 2016-Aug-15 03:13 UTC. Time now 2016-Aug-26 23:28 UTC.
Position N 01°57' E 102°17'.
Warning: this ship's position is 11 days out of date.

Length 269 m; draft 8.7 m.

Type: Cargo ship. MMSI: 565567000.

Date/timePositionNaut miles runAvg speedWind from/ knotsBaromVisibWave heightAir tempDewpointWater temp
2016-Aug-15 03:13N 01°57' E 102°17'1319.1
2016-Aug-15 02:33N 01°52' E 102°28'1818.5
2016-Aug-15 01:34N 01°44' E 102°45'7116.4
2016-Aug-14 21:13N 01°11' E 103°48'5 7.5
2016-Aug-14 20:31N 01°14' E 103°52'3 3.3
2016-Aug-14 19:33N 01°16' E 103°50'0 0.0
2016-Aug-14 17:26N 01°16' E 103°50'0 0.0
2016-Aug-14 16:32N 01°16' E 103°50'0 0.0
2016-Aug-14 15:32N 01°16' E 103°50'0 0.0
2016-Aug-14 14:32N 01°16' E 103°50'0 0.0
2016-Aug-14 13:32N 01°16' E 103°50'0 0.0
2016-Aug-14 12:32N 01°16' E 103°50'0 0.0
2016-Aug-14 11:32N 01°16' E 103°50'0 0.0
2016-Aug-14 10:32N 01°16' E 103°50'0 0.0
2016-Aug-14 09:32N 01°16' E 103°50'0 0.0
2016-Aug-14 08:32N 01°16' E 103°50'0 0.0
2016-Aug-14 07:32N 01°16' E 103°50'0 0.0
2016-Aug-14 06:32N 01°16' E 103°50'0 0.0
2016-Aug-14 04:32N 01°16' E 103°50'0 0.2
2016-Aug-14 03:33N 01°16' E 103°50'4 4.2
2016-Aug-14 02:33N 01°17' E 103°54'0 0.1
2016-Aug-14 01:31N 01°16' E 103°54'0 0.0
2016-Aug-14 00:31N 01°16' E 103°54'0 0.1
2016-Aug-13 23:31N 01°16' E 103°54'0 0.2
2016-Aug-13 22:25N 01°16' E 103°54'0 0.1
2016-Aug-13 21:31N 01°16' E 103°54'0 0.2
2016-Aug-13 20:31N 01°16' E 103°54'0 0.1
2016-Aug-13 19:25N 01°16' E 103°54'0 0.1
2016-Aug-13 18:22N 01°17' E 103°54'0 0.1
2016-Aug-13 17:25N 01°17' E 103°54'0 0.0
2016-Aug-13 16:31N 01°17' E 103°54'0 0.1
2016-Aug-13 15:31N 01°16' E 103°54'0 0.1
2016-Aug-13 14:31N 01°17' E 103°54'0 0.1
2016-Aug-13 13:31N 01°16' E 103°54'0 0.0
2016-Aug-13 12:31N 01°16' E 103°54'0 0.0
2016-Aug-13 11:31N 01°16' E 103°54'0 0.0
2016-Aug-13 10:31N 01°16' E 103°54'0 0.1
2016-Aug-13 09:31N 01°17' E 103°54'0 0.1
2016-Aug-13 08:31N 01°17' E 103°54'0 0.0
2016-Aug-13 07:31N 01°17' E 103°54'0 0.1
2016-Aug-13 06:25N 01°16' E 103°54'2 2.0
2016-Aug-13 05:33N 01°15' E 103°54'5 4.5
2016-Aug-13 04:32N 01°11' E 103°51'1010.1
2016-Aug-13 03:31N 01°05' E 103°43'8917.9
2016-Aug-12 22:33N 01°48' E 102°25'  

Dump ship's entire track history